createdAt,value
2022-08-17T00:01:51.504Z,17.50
2022-08-17T00:04:20.779Z,18.30
2022-08-17T00:06:49.342Z,18.20
2022-08-17T00:09:19.475Z,18.45
2022-08-17T00:12:42.177Z,18.77
2022-08-17T00:14:36.524Z,19.20
2022-08-17T00:17:06.492Z,20.52
2022-08-17T00:19:34.215Z,19.60
2022-08-17T00:22:32.500Z,21.40
2022-08-17T00:24:51.981Z,20.50
2022-08-17T00:27:19.673Z,23.15
2022-08-17T00:29:48.253Z,22.75
2022-08-17T00:33:15.480Z,23.27
2022-08-17T00:35:05.165Z,23.58
2022-08-17T00:37:32.847Z,26.55
2022-08-17T00:40:01.978Z,25.20
2022-08-17T00:42:31.223Z,26.08
2022-08-17T00:44:59.143Z,26.42
2022-08-17T00:47:26.845Z,25.50
2022-08-17T00:49:54.506Z,26.30
2022-08-17T00:52:23.939Z,24.60
2022-08-17T00:54:54.518Z,25.40
2022-08-17T00:57:25.227Z,26.05
2022-08-17T01:00:02.137Z,28.02
2022-08-17T01:02:34.881Z,29.88
2022-08-17T01:05:10.499Z,29.10
2022-08-17T01:07:38.491Z,29.77
2022-08-17T01:10:08.768Z,28.63
2022-08-17T01:12:57.846Z,28.15
2022-08-17T01:15:25.519Z,26.33
2022-08-17T01:17:53.198Z,26.55
2022-08-17T01:20:20.936Z,27.83
2022-08-17T01:22:50.069Z,26.42
2022-08-17T01:25:18.205Z,28.23
2022-08-17T01:27:45.868Z,26.88
2022-08-17T01:30:57.777Z,26.83
2022-08-17T01:33:01.882Z,28.50
2022-08-17T01:35:29.544Z,27.70
2022-08-17T01:37:58.607Z,29.17
2022-08-17T01:40:30.167Z,26.45
2022-08-17T01:42:59.446Z,27.77
2022-08-17T01:45:28.209Z,28.92
2022-08-17T01:47:56.581Z,29.67
2022-08-17T01:50:25.942Z,28.38
2022-08-17T01:52:56.055Z,27.48
2022-08-17T01:55:27.995Z,29.35
2022-08-17T01:57:56.011Z,27.45
2022-08-17T02:00:23.931Z,29.33
2022-08-17T02:02:51.801Z,31.05
2022-08-17T02:05:19.634Z,30.58
2022-08-17T02:07:59.356Z,29.65
2022-08-17T02:10:33.894Z,28.70
2022-08-17T02:13:02.259Z,28.85
2022-08-17T02:15:29.979Z,28.40
2022-08-17T02:17:57.826Z,27.60
2022-08-17T02:20:42.620Z,30.23
2022-08-17T02:23:11.897Z,28.42
2022-08-17T02:25:43.401Z,28.02
2022-08-17T02:28:11.262Z,28.50
2022-08-17T02:31:01.615Z,28.73
2022-08-17T02:33:37.176Z,27.90
2022-08-17T02:36:11.957Z,28.42
2022-08-17T02:38:39.970Z,28.25
2022-08-17T02:41:09.523Z,27.42
2022-08-17T02:43:37.192Z,28.23
2022-08-17T02:46:04.973Z,26.88
2022-08-17T02:48:32.638Z,26.67
2022-08-17T02:51:00.344Z,27.33
2022-08-17T02:53:28.117Z,28.85
2022-08-17T02:56:03.345Z,30.83
2022-08-17T02:58:34.515Z,31.27
2022-08-17T03:01:03.903Z,31.05
2022-08-17T03:03:31.547Z,30.38
2022-08-17T03:05:59.241Z,28.25
2022-08-17T03:08:27.317Z,27.88
2022-08-17T03:10:55.196Z,29.65
2022-08-17T03:13:23.155Z,28.02
2022-08-17T03:15:52.190Z,26.83
2022-08-17T03:18:25.066Z,28.38
2022-08-17T03:20:55.325Z,26.38
2022-08-17T03:23:24.168Z,30.92
2022-08-17T03:25:53.874Z,29.15
2022-08-17T03:28:21.711Z,29.33
2022-08-17T03:30:52.937Z,28.83
2022-08-17T03:33:20.879Z,27.95
2022-08-17T03:35:48.545Z,26.92
2022-08-17T03:38:17.423Z,28.73
2022-08-17T03:40:56.487Z,28.58
2022-08-17T03:43:27.619Z,29.80
2022-08-17T03:46:34.348Z,30.88
2022-08-17T03:49:20.189Z,31.27
2022-08-17T03:52:05.047Z,31.75
2022-08-17T03:54:49.942Z,33.95
2022-08-17T03:57:19.178Z,36.17
2022-08-17T03:59:47.706Z,35.88
2022-08-17T04:02:18.765Z,33.83
2022-08-17T04:04:46.725Z,36.38
2022-08-17T04:07:14.389Z,32.28
2022-08-17T04:09:42.977Z,33.55
2022-08-17T04:12:12.486Z,32.25
2022-08-17T04:14:53.740Z,34.53
2022-08-17T04:17:24.805Z,31.15
2022-08-17T04:19:53.009Z,32.60
2022-08-17T04:22:30.531Z,34.67
2022-08-17T04:25:01.821Z,32.83
2022-08-17T04:27:29.479Z,35.13
2022-08-17T04:29:58.578Z,36.28
2022-08-17T04:33:02.282Z,34.72
2022-08-17T04:35:18.586Z,36.33
2022-08-17T04:37:46.317Z,31.70
2022-08-17T04:40:31.868Z,36.58
2022-08-17T04:45:32.040Z,33.72
2022-08-17T04:48:01.849Z,32.42
2022-08-17T04:50:29.915Z,34.15
2022-08-17T04:52:57.810Z,34.55
2022-08-17T04:55:25.684Z,36.85
2022-08-17T04:57:53.511Z,38.75
2022-08-17T05:00:21.457Z,39.65
2022-08-17T05:02:50.694Z,38.92
2022-08-17T05:05:20.782Z,40.00
2022-08-17T05:07:48.677Z,42.15
2022-08-17T05:10:16.569Z,38.50
2022-08-17T05:12:44.698Z,37.78
2022-08-17T05:15:14.295Z,39.83
2022-08-17T05:17:42.451Z,36.85
2022-08-17T05:20:14.187Z,37.95
2022-08-17T05:22:51.373Z,40.15
2022-08-17T05:25:20.006Z,39.00
2022-08-17T05:27:53.204Z,38.53
2022-08-17T05:30:21.851Z,43.25
2022-08-17T05:32:53.201Z,41.58
2022-08-17T05:35:21.009Z,45.58
2022-08-17T05:37:50.095Z,43.13
2022-08-17T05:40:18.195Z,45.50
2022-08-17T05:42:45.952Z,45.05
2022-08-17T05:45:13.652Z,40.80
2022-08-17T05:47:41.588Z,44.25
2022-08-17T05:50:10.840Z,41.92
2022-08-17T05:52:48.873Z,43.30
2022-08-17T05:55:21.481Z,45.40
2022-08-17T05:57:57.009Z,42.95
2022-08-17T06:00:30.253Z,39.20
2022-08-17T06:03:08.522Z,39.53
2022-08-17T06:05:41.507Z,38.50
2022-08-17T06:08:13.251Z,40.75
2022-08-17T06:10:47.177Z,41.45
2022-08-17T06:13:20.182Z,38.90
2022-08-17T06:15:54.113Z,39.10
2022-08-17T06:18:22.831Z,38.78
2022-08-17T06:20:53.350Z,40.50
2022-08-17T06:23:25.009Z,40.70
2022-08-17T06:25:57.216Z,39.90
2022-08-17T06:28:28.739Z,38.17
2022-08-17T06:31:00.771Z,40.42
2022-08-17T06:33:34.225Z,40.35
2022-08-17T06:36:09.372Z,39.15
2022-08-17T06:38:42.602Z,40.28
2022-08-17T06:41:16.960Z,38.67
2022-08-17T06:43:49.363Z,42.65
2022-08-17T06:46:20.666Z,43.05
2022-08-17T06:48:52.335Z,42.25
2022-08-17T06:51:23.351Z,43.97
2022-08-17T06:53:53.981Z,40.38
2022-08-17T06:56:54.277Z,41.95
2022-08-17T06:59:23.863Z,40.22
2022-08-17T07:01:53.415Z,39.50
2022-08-17T07:04:23.047Z,43.67
2022-08-17T07:06:52.243Z,45.50
2022-08-17T07:09:23.427Z,47.63
2022-08-17T07:11:55.347Z,47.42
2022-08-17T07:14:41.102Z,49.33
2022-08-17T07:17:10.180Z,53.63
2022-08-17T07:19:40.661Z,54.92
2022-08-17T07:22:11.269Z,51.97
2022-08-17T07:24:45.331Z,51.22
2022-08-17T07:27:16.478Z,50.28
2022-08-17T07:29:47.829Z,49.00
2022-08-17T07:32:17.926Z,45.38
2022-08-17T07:35:05.213Z,45.60
2022-08-17T07:37:33.434Z,41.85
2022-08-17T07:40:16.048Z,42.22
2022-08-17T07:43:01.114Z,43.17
2022-08-17T07:45:48.750Z,45.95
2022-08-17T07:50:50.645Z,47.70
2022-08-17T07:53:19.217Z,51.00
2022-08-17T07:55:47.197Z,51.35
2022-08-17T07:58:18.700Z,48.28
2022-08-17T08:00:46.431Z,47.30
2022-08-17T08:03:21.849Z,51.40
2022-08-17T08:05:52.744Z,45.95
2022-08-17T08:08:23.746Z,45.58
2022-08-17T08:10:58.880Z,50.63
2022-08-17T08:13:29.688Z,46.10
2022-08-17T08:16:13.291Z,46.85
2022-08-17T08:18:55.270Z,43.63
2022-08-17T08:21:30.067Z,44.03
2022-08-17T08:24:00.559Z,41.33
2022-08-17T08:26:33.402Z,41.28
2022-08-17T08:29:09.626Z,39.20
2022-08-17T08:31:45.972Z,38.83
2022-08-17T08:35:00.538Z,38.58
2022-08-17T08:37:16.615Z,37.55
2022-08-17T08:39:52.948Z,34.47
2022-08-17T08:42:24.465Z,35.88
2022-08-17T08:45:04.694Z,33.92
2022-08-17T08:47:42.554Z,33.00
2022-08-17T08:50:37.351Z,37.00
2022-08-17T08:53:11.446Z,35.15
2022-08-17T08:55:46.497Z,36.92
2022-08-17T08:58:31.943Z,36.95
2022-08-17T09:01:16.939Z,38.88
2022-08-17T09:04:23.367Z,39.03
2022-08-17T09:06:58.753Z,43.40
2022-08-17T09:09:30.372Z,40.40
2022-08-17T09:12:04.113Z,38.60
2022-08-17T09:14:46.645Z,31.70
2022-08-17T09:17:19.274Z,32.55
2022-08-17T09:19:49.460Z,35.95
2022-08-17T09:22:23.463Z,36.72
2022-08-17T09:24:57.130Z,34.40
2022-08-17T09:27:28.372Z,34.80
2022-08-17T09:30:02.556Z,33.80
2022-08-17T09:32:35.260Z,34.57
2022-08-17T09:35:06.700Z,34.08
2022-08-17T09:37:38.564Z,34.15
2022-08-17T09:40:12.325Z,35.22
2022-08-17T09:42:43.744Z,33.72
2022-08-17T09:45:17.334Z,32.13
2022-08-17T09:47:49.334Z,31.50
2022-08-17T09:51:05.262Z,29.35
2022-08-17T09:53:10.642Z,27.88
2022-08-17T09:55:53.116Z,28.33
2022-08-17T09:58:29.063Z,27.23
2022-08-17T10:00:58.825Z,23.63
2022-08-17T10:03:32.397Z,26.33
2022-08-17T10:06:02.784Z,27.30
2022-08-17T10:08:37.621Z,29.85
2022-08-17T10:11:14.767Z,31.15
2022-08-17T10:13:53.037Z,30.88
2022-08-17T10:16:25.768Z,28.50
2022-08-17T10:19:02.175Z,29.38
2022-08-17T10:21:49.466Z,27.60
2022-08-17T10:25:21.727Z,25.45
2022-08-17T10:27:40.858Z,26.65
2022-08-17T10:30:13.826Z,25.85
2022-08-17T10:32:46.032Z,29.17
2022-08-17T10:35:25.919Z,30.33
2022-08-17T10:38:14.723Z,28.80
2022-08-17T10:40:47.974Z,27.95
2022-08-17T10:43:24.843Z,27.70
2022-08-17T10:46:09.219Z,28.08
2022-08-17T10:48:45.495Z,27.75
2022-08-17T10:51:36.426Z,28.77
2022-08-17T10:54:05.319Z,30.15
2022-08-17T10:56:44.655Z,25.15
2022-08-17T10:59:32.401Z,25.38
2022-08-17T11:02:12.235Z,24.90
2022-08-17T11:04:52.368Z,26.10
2022-08-17T11:07:43.786Z,27.67
2022-08-17T11:10:21.458Z,28.40
2022-08-17T11:12:54.303Z,26.58
2022-08-17T11:15:26.959Z,24.67
2022-08-17T11:18:13.720Z,25.65
2022-08-17T11:20:58.026Z,28.90
2022-08-17T11:23:34.275Z,26.15
2022-08-17T11:26:04.051Z,26.17
2022-08-17T11:28:35.286Z,28.00
2022-08-17T11:31:07.640Z,30.08
2022-08-17T11:33:52.969Z,30.95
2022-08-17T11:38:58.067Z,30.13
2022-08-17T11:41:29.092Z,29.98
2022-08-17T11:44:11.695Z,30.45
2022-08-17T11:47:07.714Z,29.60
2022-08-17T11:49:55.786Z,30.48
2022-08-17T11:52:42.118Z,30.08
2022-08-17T11:55:38.530Z,31.00
2022-08-17T11:58:34.237Z,30.08
2022-08-17T12:01:02.805Z,32.10
2022-08-17T12:03:55.346Z,31.63
2022-08-17T12:06:42.487Z,33.72
2022-08-17T12:09:13.312Z,29.80
2022-08-17T12:12:11.196Z,33.72
2022-08-17T12:15:08.155Z,33.08
2022-08-17T12:17:39.365Z,30.65
2022-08-17T12:20:12.175Z,19.63
2022-08-17T12:22:45.096Z,14.48
2022-08-17T12:25:14.696Z,13.00
2022-08-17T12:28:05.549Z,11.85
2022-08-17T12:30:34.679Z,11.23
2022-08-17T12:33:02.610Z,12.35
2022-08-17T12:35:33.144Z,11.93
2022-08-17T12:38:01.528Z,11.10
2022-08-17T12:40:31.537Z,12.40
2022-08-17T12:43:01.823Z,13.80
2022-08-17T12:45:30.610Z,11.02
2022-08-17T12:48:02.742Z,9.95
2022-08-17T12:50:32.465Z,11.80
2022-08-17T12:53:02.474Z,10.00
2022-08-17T12:55:33.119Z,10.82
2022-08-17T12:58:03.113Z,10.90
2022-08-17T13:00:32.186Z,10.65
2022-08-17T13:03:03.075Z,10.18
2022-08-17T13:05:31.824Z,11.25
2022-08-17T13:08:00.340Z,10.05
2022-08-17T13:10:32.883Z,9.85
2022-08-17T13:13:04.981Z,10.35
2022-08-17T13:15:36.948Z,9.90
2022-08-17T13:18:07.023Z,9.95
2022-08-17T13:20:35.780Z,10.07
2022-08-17T13:23:11.442Z,9.77
2022-08-17T13:25:40.173Z,9.48
2022-08-17T13:28:18.086Z,9.90
2022-08-17T13:31:13.092Z,8.77
2022-08-17T13:33:44.628Z,8.52
2022-08-17T13:36:13.131Z,9.10
2022-08-17T13:41:30.825Z,9.45
2022-08-17T13:43:58.507Z,9.82
2022-08-17T13:46:29.479Z,9.35
2022-08-17T13:49:03.312Z,9.30
2022-08-17T13:51:33.580Z,9.13
2022-08-17T13:54:17.690Z,9.60
2022-08-17T13:57:02.993Z,9.05
2022-08-17T13:59:55.053Z,10.13
2022-08-17T14:02:25.967Z,7.60
2022-08-17T14:04:58.520Z,7.70
2022-08-17T14:07:31.136Z,8.43
2022-08-17T14:10:00.290Z,7.55
2022-08-17T14:12:30.733Z,7.13
2022-08-17T14:14:59.510Z,6.97
2022-08-17T14:17:28.906Z,7.93
2022-08-17T14:19:58.458Z,6.95
2022-08-17T14:22:28.557Z,7.30
2022-08-17T14:24:58.295Z,7.30
2022-08-17T14:27:28.206Z,6.43
2022-08-17T14:29:57.986Z,6.53
2022-08-17T14:32:26.796Z,6.95
2022-08-17T14:34:56.603Z,6.63
2022-08-17T14:37:27.943Z,7.10
2022-08-17T14:39:56.889Z,7.68
2022-08-17T14:42:26.334Z,7.20
2022-08-17T14:44:54.106Z,7.30
2022-08-17T14:47:21.855Z,6.82
2022-08-17T14:49:49.947Z,7.18
2022-08-17T14:52:21.574Z,7.63
2022-08-17T14:54:51.325Z,6.78
2022-08-17T14:57:25.144Z,7.63
2022-08-17T15:00:01.744Z,7.70
2022-08-17T15:02:30.895Z,7.30
2022-08-17T15:05:02.939Z,7.43
2022-08-17T15:07:31.510Z,8.40
2022-08-17T15:10:02.326Z,8.55
2022-08-17T15:12:33.794Z,7.07
2022-08-17T15:15:02.187Z,7.68
2022-08-17T15:17:44.485Z,7.55
2022-08-17T15:20:15.266Z,7.47
2022-08-17T15:22:43.723Z,7.43
2022-08-17T15:25:13.244Z,7.95
2022-08-17T15:27:40.990Z,7.93
2022-08-17T15:30:09.924Z,7.53
2022-08-17T15:32:39.245Z,9.20
2022-08-17T15:35:08.817Z,9.13
2022-08-17T15:37:36.587Z,8.85
2022-08-17T15:40:05.146Z,8.20
2022-08-17T15:42:35.569Z,8.18
2022-08-17T15:45:06.455Z,9.02
2022-08-17T15:47:34.296Z,8.93
2022-08-17T15:50:02.127Z,7.95
2022-08-17T15:52:30.849Z,8.40
2022-08-17T15:54:59.442Z,8.18
2022-08-17T15:57:27.751Z,8.13
2022-08-17T15:59:58.678Z,8.55
2022-08-17T16:03:46.741Z,9.45
2022-08-17T16:05:18.803Z,7.70
2022-08-17T16:07:47.696Z,8.82
2022-08-17T16:10:19.027Z,7.45
2022-08-17T16:12:47.236Z,8.07
2022-08-17T16:15:16.902Z,8.27
2022-08-17T16:17:45.040Z,8.43
2022-08-17T16:20:20.148Z,6.80
2022-08-17T16:22:49.223Z,7.00
2022-08-17T16:25:18.825Z,7.20
2022-08-17T16:27:46.662Z,6.70
2022-08-17T16:30:17.523Z,7.18
2022-08-17T16:32:51.416Z,7.25
2022-08-17T16:35:21.274Z,7.47
2022-08-17T16:37:49.540Z,9.20
2022-08-17T16:40:17.563Z,9.00
2022-08-17T16:42:47.997Z,7.97
2022-08-17T16:45:16.800Z,8.18
2022-08-17T16:47:44.694Z,9.05
2022-08-17T16:50:15.829Z,8.55
2022-08-17T16:52:43.512Z,9.45
2022-08-17T16:55:13.241Z,9.98
2022-08-17T16:57:47.589Z,9.38
2022-08-17T17:00:19.442Z,9.63
2022-08-17T17:02:48.801Z,9.30
2022-08-17T17:05:24.439Z,9.90
2022-08-17T17:07:55.908Z,9.35
2022-08-17T17:10:25.023Z,9.80
2022-08-17T17:13:02.387Z,10.60
2022-08-17T17:15:34.572Z,10.48
2022-08-17T17:18:07.314Z,8.73
2022-08-17T17:20:40.336Z,8.13
2022-08-17T17:23:11.307Z,10.20
2022-08-17T17:25:48.930Z,10.55
2022-08-17T17:28:20.226Z,10.35
2022-08-17T17:30:51.073Z,10.88
2022-08-17T17:33:19.755Z,10.52
2022-08-17T17:35:49.931Z,10.98
2022-08-17T17:38:19.854Z,11.10
2022-08-17T17:40:48.325Z,10.68
2022-08-17T17:43:37.898Z,10.80
2022-08-17T17:46:28.109Z,11.40
2022-08-17T17:48:57.062Z,11.00
2022-08-17T17:52:05.277Z,11.20
2022-08-17T17:54:28.116Z,10.93
2022-08-17T17:57:01.757Z,11.82
2022-08-17T17:59:33.963Z,12.20
2022-08-17T18:02:05.838Z,10.90
2022-08-17T18:04:36.672Z,11.77
2022-08-17T18:07:15.322Z,11.93
2022-08-17T18:09:51.729Z,12.23
2022-08-17T18:12:28.452Z,12.80
2022-08-17T18:15:00.878Z,12.55
2022-08-17T18:17:29.970Z,12.25
2022-08-17T18:19:57.999Z,12.43
2022-08-17T18:22:28.065Z,13.18
2022-08-17T18:24:57.321Z,13.25
2022-08-17T18:27:27.465Z,11.75
2022-08-17T18:29:56.558Z,11.18
2022-08-17T18:32:26.867Z,12.65
2022-08-17T18:34:56.466Z,11.60
2022-08-17T18:37:43.774Z,11.90
2022-08-17T18:40:29.923Z,12.80
2022-08-17T18:43:00.279Z,11.48
2022-08-17T18:45:33.455Z,12.57
2022-08-17T18:48:01.259Z,11.90
2022-08-17T18:50:35.090Z,12.13
2022-08-17T18:53:19.557Z,12.68
2022-08-17T18:55:47.273Z,12.48
2022-08-17T18:58:19.839Z,12.02
2022-08-17T19:00:49.122Z,12.80
2022-08-17T19:03:23.271Z,11.93
2022-08-17T19:05:51.588Z,13.10
2022-08-17T19:08:22.520Z,12.70
2022-08-17T19:10:52.385Z,13.73
2022-08-17T19:13:24.441Z,13.80
2022-08-17T19:16:11.841Z,13.85
2022-08-17T19:18:47.404Z,12.98
2022-08-17T19:21:16.668Z,14.75
2022-08-17T19:23:53.849Z,14.13
2022-08-17T19:26:50.614Z,13.70
2022-08-17T19:29:13.108Z,13.20
2022-08-17T19:31:42.508Z,13.77
2022-08-17T19:34:10.954Z,13.45
2022-08-17T19:36:41.941Z,13.38
2022-08-17T19:39:16.348Z,13.65
2022-08-17T19:41:47.758Z,13.55
2022-08-17T19:44:36.769Z,13.50
2022-08-17T19:47:10.561Z,12.50
2022-08-17T19:49:46.643Z,14.32
2022-08-17T19:52:22.116Z,13.38
2022-08-17T19:54:56.412Z,15.45
2022-08-17T19:57:31.371Z,14.43
2022-08-17T20:00:01.998Z,16.13
2022-08-17T20:02:32.624Z,17.30
2022-08-17T20:05:01.415Z,18.35
2022-08-17T20:07:30.242Z,16.73
2022-08-17T20:10:02.619Z,16.08
2022-08-17T20:12:32.634Z,18.70
2022-08-17T20:15:01.209Z,18.70
2022-08-17T20:17:32.007Z,19.27
2022-08-17T20:20:06.428Z,18.38
2022-08-17T20:22:50.370Z,20.15
2022-08-17T20:25:30.159Z,20.60
2022-08-17T20:28:05.876Z,20.15
2022-08-17T20:30:37.560Z,20.20
2022-08-17T20:33:06.524Z,19.55
2022-08-17T20:35:36.297Z,20.02
2022-08-17T20:38:05.508Z,20.48
2022-08-17T20:40:39.115Z,21.20
2022-08-17T20:43:25.324Z,22.00
2022-08-17T20:46:13.049Z,24.42
2022-08-17T20:48:43.519Z,23.70
2022-08-17T20:51:25.996Z,24.40
2022-08-17T20:54:23.661Z,24.67
2022-08-17T20:56:56.206Z,24.20
2022-08-17T20:59:38.732Z,23.85
2022-08-17T21:02:18.743Z,25.48
2022-08-17T21:05:00.074Z,23.05
2022-08-17T21:07:30.114Z,22.98
2022-08-17T21:10:11.382Z,21.50
2022-08-17T21:12:42.545Z,25.17
2022-08-17T21:15:18.566Z,22.67
2022-08-17T21:17:49.968Z,25.10
2022-08-17T21:20:26.577Z,27.48
2022-08-17T21:23:00.253Z,26.42
2022-08-17T21:25:34.527Z,25.52
2022-08-17T21:28:08.575Z,25.27
2022-08-17T21:30:51.729Z,27.83
2022-08-17T21:33:21.087Z,24.30
2022-08-17T21:35:51.557Z,24.88
2022-08-17T21:38:22.048Z,24.17
2022-08-17T21:40:51.138Z,25.80
2022-08-17T21:43:24.619Z,27.45
2022-08-17T21:45:57.653Z,26.83
2022-08-17T21:48:27.035Z,25.63
2022-08-17T21:51:02.337Z,26.33
2022-08-17T21:53:33.369Z,25.30
2022-08-17T21:56:01.700Z,24.60
2022-08-17T21:58:32.376Z,25.67
2022-08-17T22:01:10.284Z,25.27
2022-08-17T22:03:38.570Z,25.73
2022-08-17T22:06:19.490Z,24.88
2022-08-17T22:08:57.982Z,24.38
2022-08-17T22:11:25.902Z,23.63
2022-08-17T22:14:00.584Z,25.27
2022-08-17T22:16:33.970Z,23.67
2022-08-17T22:19:01.721Z,23.77
2022-08-17T22:21:29.422Z,23.88
2022-08-17T22:24:04.360Z,22.70
2022-08-17T22:26:46.976Z,20.00
2022-08-17T22:29:30.192Z,20.35
2022-08-17T22:31:59.675Z,19.25
2022-08-17T22:34:27.336Z,20.98
2022-08-17T22:37:09.810Z,20.90
2022-08-17T22:39:41.525Z,20.50
2022-08-17T22:42:14.937Z,23.77
2022-08-17T22:44:47.457Z,23.85
2022-08-17T22:47:32.171Z,23.92
2022-08-17T22:50:01.271Z,20.60
2022-08-17T22:52:32.489Z,20.67
2022-08-17T22:55:24.045Z,19.95
2022-08-17T22:58:09.418Z,23.02
2022-08-17T23:00:39.015Z,26.65
2022-08-17T23:03:12.932Z,29.67
2022-08-17T23:05:42.054Z,32.90
2022-08-17T23:08:11.311Z,32.40
2022-08-17T23:10:39.379Z,33.78
2022-08-17T23:13:10.448Z,34.05
2022-08-17T23:15:39.806Z,34.85
2022-08-17T23:18:07.767Z,38.13
2022-08-17T23:20:37.615Z,40.58
2022-08-17T23:23:06.429Z,40.35
2022-08-17T23:25:34.722Z,39.00
2022-08-17T23:28:02.909Z,42.45
2022-08-17T23:30:31.292Z,40.40
2022-08-17T23:33:01.103Z,40.55
2022-08-17T23:35:39.858Z,41.50
2022-08-17T23:38:10.226Z,43.30
2022-08-17T23:40:39.536Z,45.03
2022-08-17T23:43:24.824Z,45.33
2022-08-17T23:45:53.986Z,66.35
2022-08-17T23:48:36.270Z,66.90
2022-08-17T23:51:05.976Z,42.63
2022-08-17T23:53:36.696Z,45.72
2022-08-17T23:56:10.324Z,47.83
2022-08-17T23:58:39.498Z,47.60
